sensor_id;sensor_type;location;lat;lon;timestamp;P1;durP1;ratioP1;P2;durP2;ratioP2
38226;SDS011;24026;49.446;8.576;2023-07-08T00:01:40;158.15;;;145.95;;
38226;SDS011;24026;49.446;8.576;2023-07-08T00:04:01;155.95;;;143.95;;
38226;SDS011;24026;49.446;8.576;2023-07-08T00:06:25;158.13;;;145.95;;
38226;SDS011;24026;49.446;8.576;2023-07-08T00:08:47;158.00;;;145.63;;
38226;SDS011;24026;49.446;8.576;2023-07-08T00:11:11;158.73;;;146.40;;
38226;SDS011;24026;49.446;8.576;2023-07-08T00:13:32;158.85;;;146.57;;
38226;SDS011;24026;49.446;8.576;2023-07-08T00:15:52;156.43;;;144.30;;
38226;SDS011;24026;49.446;8.576;2023-07-08T00:18:14;157.50;;;145.43;;
38226;SDS011;24026;49.446;8.576;2023-07-08T00:20:37;158.18;;;145.88;;
38226;SDS011;24026;49.446;8.576;2023-07-08T00:22:59;154.07;;;142.13;;
38226;SDS011;24026;49.446;8.576;2023-07-08T00:25:22;153.48;;;141.57;;
38226;SDS011;24026;49.446;8.576;2023-07-08T00:27:43;156.13;;;144.10;;
38226;SDS011;24026;49.446;8.576;2023-07-08T00:30:09;158.40;;;146.20;;
38226;SDS011;24026;49.446;8.576;2023-07-08T00:32:42;155.82;;;143.70;;
38226;SDS011;24026;49.446;8.576;2023-07-08T00:35:02;154.93;;;142.70;;
38226;SDS011;24026;49.446;8.576;2023-07-08T00:37:23;157.00;;;144.80;;
38226;SDS011;24026;49.446;8.576;2023-07-08T00:39:43;156.93;;;144.77;;
38226;SDS011;24026;49.446;8.576;2023-07-08T00:42:09;156.60;;;144.43;;
38226;SDS011;24026;49.446;8.576;2023-07-08T00:44:35;153.55;;;141.68;;
38226;SDS011;24026;49.446;8.576;2023-07-08T00:47:03;155.93;;;143.77;;
38226;SDS011;24026;49.446;8.576;2023-07-08T00:49:31;156.40;;;144.23;;
38226;SDS011;24026;49.446;8.576;2023-07-08T00:54:55;152.73;;;140.82;;
38226;SDS011;24026;49.446;8.576;2023-07-08T00:57:17;154.90;;;142.90;;
38226;SDS011;24026;49.446;8.576;2023-07-08T00:59:39;149.68;;;137.95;;
38226;SDS011;24026;49.446;8.576;2023-07-08T01:02:08;153.35;;;141.50;;
38226;SDS011;24026;49.446;8.576;2023-07-08T01:04:32;155.15;;;143.15;;
38226;SDS011;24026;49.446;8.576;2023-07-08T01:06:57;154.23;;;142.23;;
38226;SDS011;24026;49.446;8.576;2023-07-08T01:09:24;154.45;;;142.50;;
38226;SDS011;24026;49.446;8.576;2023-07-08T01:11:52;154.68;;;142.68;;
38226;SDS011;24026;49.446;8.576;2023-07-08T01:14:15;155.07;;;143.07;;
38226;SDS011;24026;49.446;8.576;2023-07-08T01:16:41;153.27;;;141.30;;
38226;SDS011;24026;49.446;8.576;2023-07-08T01:19:02;154.55;;;142.55;;
38226;SDS011;24026;49.446;8.576;2023-07-08T01:21:28;153.23;;;141.35;;
38226;SDS011;24026;49.446;8.576;2023-07-08T01:23:57;154.13;;;142.27;;
38226;SDS011;24026;49.446;8.576;2023-07-08T01:26:20;153.25;;;141.35;;
38226;SDS011;24026;49.446;8.576;2023-07-08T01:28:44;153.07;;;141.18;;
38226;SDS011;24026;49.446;8.576;2023-07-08T01:31:05;154.55;;;142.45;;
38226;SDS011;24026;49.446;8.576;2023-07-08T01:33:26;152.60;;;140.80;;
38226;SDS011;24026;49.446;8.576;2023-07-08T01:35:46;153.88;;;142.02;;
38226;SDS011;24026;49.446;8.576;2023-07-08T01:38:10;154.05;;;142.10;;
38226;SDS011;24026;49.446;8.576;2023-07-08T01:40:34;153.52;;;141.60;;
38226;SDS011;24026;49.446;8.576;2023-07-08T01:42:56;152.30;;;140.40;;
38226;SDS011;24026;49.446;8.576;2023-07-08T01:45:18;149.68;;;138.00;;
38226;SDS011;24026;49.446;8.576;2023-07-08T01:47:41;151.75;;;140.00;;
38226;SDS011;24026;49.446;8.576;2023-07-08T01:52:26;151.20;;;139.35;;
38226;SDS011;24026;49.446;8.576;2023-07-08T01:54:53;153.48;;;141.57;;
38226;SDS011;24026;49.446;8.576;2023-07-08T01:57:15;151.70;;;139.82;;
38226;SDS011;24026;49.446;8.576;2023-07-08T01:59:36;153.30;;;141.40;;
38226;SDS011;24026;49.446;8.576;2023-07-08T02:01:57;152.38;;;140.48;;
38226;SDS011;24026;49.446;8.576;2023-07-08T02:04:17;151.18;;;139.40;;
38226;SDS011;24026;49.446;8.576;2023-07-08T02:06:38;152.30;;;140.50;;
38226;SDS011;24026;49.446;8.576;2023-07-08T02:08:58;154.27;;;142.38;;
38226;SDS011;24026;49.446;8.576;2023-07-08T02:11:19;150.73;;;138.82;;
38226;SDS011;24026;49.446;8.576;2023-07-08T02:13:39;151.07;;;139.27;;
38226;SDS011;24026;49.446;8.576;2023-07-08T02:15:59;148.30;;;136.75;;
38226;SDS011;24026;49.446;8.576;2023-07-08T02:18:20;152.90;;;141.02;;
38226;SDS011;24026;49.446;8.576;2023-07-08T02:20:40;149.55;;;137.93;;
38226;SDS011;24026;49.446;8.576;2023-07-08T02:23:03;151.77;;;140.02;;
38226;SDS011;24026;49.446;8.576;2023-07-08T02:25:23;152.18;;;140.32;;
38226;SDS011;24026;49.446;8.576;2023-07-08T02:27:44;149.68;;;137.95;;
38226;SDS011;24026;49.446;8.576;2023-07-08T02:30:04;148.30;;;136.70;;
38226;SDS011;24026;49.446;8.576;2023-07-08T02:32:26;150.80;;;139.02;;
38226;SDS011;24026;49.446;8.576;2023-07-08T02:34:46;151.23;;;139.48;;
38226;SDS011;24026;49.446;8.576;2023-07-08T02:37:07;150.65;;;138.95;;
38226;SDS011;24026;49.446;8.576;2023-07-08T02:39:27;150.43;;;138.70;;
38226;SDS011;24026;49.446;8.576;2023-07-08T02:41:48;151.23;;;139.48;;
38226;SDS011;24026;49.446;8.576;2023-07-08T02:44:08;149.93;;;138.05;;
38226;SDS011;24026;49.446;8.576;2023-07-08T02:46:28;151.25;;;139.50;;
38226;SDS011;24026;49.446;8.576;2023-07-08T02:48:49;149.27;;;137.45;;
38226;SDS011;24026;49.446;8.576;2023-07-08T02:51:09;149.18;;;137.50;;
38226;SDS011;24026;49.446;8.576;2023-07-08T02:53:30;147.80;;;136.25;;
38226;SDS011;24026;49.446;8.576;2023-07-08T02:55:51;148.35;;;136.85;;
38226;SDS011;24026;49.446;8.576;2023-07-08T02:58:12;149.45;;;137.45;;
38226;SDS011;24026;49.446;8.576;2023-07-08T03:00:32;148.02;;;136.40;;
38226;SDS011;24026;49.446;8.576;2023-07-08T03:02:52;150.35;;;138.55;;
38226;SDS011;24026;49.446;8.576;2023-07-08T03:05:13;150.73;;;138.95;;
38226;SDS011;24026;49.446;8.576;2023-07-08T03:07:33;150.38;;;138.52;;
38226;SDS011;24026;49.446;8.576;2023-07-08T03:09:54;149.70;;;137.93;;
38226;SDS011;24026;49.446;8.576;2023-07-08T03:12:14;148.52;;;136.90;;
38226;SDS011;24026;49.446;8.576;2023-07-08T03:14:34;149.27;;;137.48;;
38226;SDS011;24026;49.446;8.576;2023-07-08T03:16:56;148.43;;;136.63;;
38226;SDS011;24026;49.446;8.576;2023-07-08T03:19:16;150.50;;;138.70;;
38226;SDS011;24026;49.446;8.576;2023-07-08T03:21:37;149.05;;;137.35;;
38226;SDS011;24026;49.446;8.576;2023-07-08T03:23:57;148.20;;;136.50;;
38226;SDS011;24026;49.446;8.576;2023-07-08T03:26:21;148.45;;;136.75;;
38226;SDS011;24026;49.446;8.576;2023-07-08T03:28:44;149.07;;;137.35;;
38226;SDS011;24026;49.446;8.576;2023-07-08T03:31:07;148.30;;;136.68;;
38226;SDS011;24026;49.446;8.576;2023-07-08T03:33:29;149.85;;;138.18;;
38226;SDS011;24026;49.446;8.576;2023-07-08T03:35:49;148.98;;;137.38;;
38226;SDS011;24026;49.446;8.576;2023-07-08T03:38:10;148.80;;;136.88;;
38226;SDS011;24026;49.446;8.576;2023-07-08T03:40:31;146.77;;;135.27;;
38226;SDS011;24026;49.446;8.576;2023-07-08T03:42:51;151.15;;;139.32;;
38226;SDS011;24026;49.446;8.576;2023-07-08T03:45:11;147.48;;;135.88;;
38226;SDS011;24026;49.446;8.576;2023-07-08T03:47:32;148.40;;;136.75;;
38226;SDS011;24026;49.446;8.576;2023-07-08T03:49:52;148.82;;;137.10;;
38226;SDS011;24026;49.446;8.576;2023-07-08T03:52:14;150.05;;;138.32;;
38226;SDS011;24026;49.446;8.576;2023-07-08T03:54:37;149.10;;;137.40;;
38226;SDS011;24026;49.446;8.576;2023-07-08T03:56:57;151.93;;;140.02;;
38226;SDS011;24026;49.446;8.576;2023-07-08T03:59:18;148.20;;;136.55;;
38226;SDS011;24026;49.446;8.576;2023-07-08T04:01:38;148.98;;;137.27;;
38226;SDS011;24026;49.446;8.576;2023-07-08T04:04:01;148.52;;;136.85;;
38226;SDS011;24026;49.446;8.576;2023-07-08T04:06:22;148.02;;;136.35;;
38226;SDS011;24026;49.446;8.576;2023-07-08T04:08:43;148.25;;;136.68;;
38226;SDS011;24026;49.446;8.576;2023-07-08T04:11:03;147.75;;;136.02;;
38226;SDS011;24026;49.446;8.576;2023-07-08T04:13:24;147.57;;;135.90;;
38226;SDS011;24026;49.446;8.576;2023-07-08T04:15:44;150.27;;;138.18;;
38226;SDS011;24026;49.446;8.576;2023-07-08T04:18:05;147.35;;;135.77;;
38226;SDS011;24026;49.446;8.576;2023-07-08T04:20:25;149.80;;;138.00;;
38226;SDS011;24026;49.446;8.576;2023-07-08T04:22:46;148.32;;;136.68;;
38226;SDS011;24026;49.446;8.576;2023-07-08T04:25:07;148.05;;;136.55;;
38226;SDS011;24026;49.446;8.576;2023-07-08T04:27:27;149.65;;;137.98;;
38226;SDS011;24026;49.446;8.576;2023-07-08T04:29:48;149.55;;;137.85;;
38226;SDS011;24026;49.446;8.576;2023-07-08T04:32:08;148.13;;;136.60;;
38226;SDS011;24026;49.446;8.576;2023-07-08T04:34:28;147.35;;;135.75;;
38226;SDS011;24026;49.446;8.576;2023-07-08T04:36:49;147.80;;;136.27;;
38226;SDS011;24026;49.446;8.576;2023-07-08T04:39:09;146.20;;;134.65;;
38226;SDS011;24026;49.446;8.576;2023-07-08T04:41:31;149.05;;;137.15;;
38226;SDS011;24026;49.446;8.576;2023-07-08T04:43:52;146.57;;;134.93;;
38226;SDS011;24026;49.446;8.576;2023-07-08T04:46:19;146.90;;;135.20;;
38226;SDS011;24026;49.446;8.576;2023-07-08T04:48:47;147.55;;;135.93;;
38226;SDS011;24026;49.446;8.576;2023-07-08T04:51:08;147.75;;;136.15;;
38226;SDS011;24026;49.446;8.576;2023-07-08T04:53:28;148.10;;;136.30;;
38226;SDS011;24026;49.446;8.576;2023-07-08T04:55:52;150.07;;;138.27;;
38226;SDS011;24026;49.446;8.576;2023-07-08T04:58:16;146.20;;;134.73;;
38226;SDS011;24026;49.446;8.576;2023-07-08T05:00:36;148.07;;;136.30;;
38226;SDS011;24026;49.446;8.576;2023-07-08T05:02:57;147.73;;;136.00;;
38226;SDS011;24026;49.446;8.576;2023-07-08T05:05:17;144.18;;;132.75;;
38226;SDS011;24026;49.446;8.576;2023-07-08T05:07:37;148.00;;;136.30;;
38226;SDS011;24026;49.446;8.576;2023-07-08T05:09:58;149.98;;;138.18;;
38226;SDS011;24026;49.446;8.576;2023-07-08T05:12:18;149.05;;;137.45;;
38226;SDS011;24026;49.446;8.576;2023-07-08T05:14:39;148.63;;;136.88;;
38226;SDS011;24026;49.446;8.576;2023-07-08T05:17:00;147.75;;;136.15;;
38226;SDS011;24026;49.446;8.576;2023-07-08T05:19:21;147.98;;;136.32;;
38226;SDS011;24026;49.446;8.576;2023-07-08T05:21:43;146.20;;;134.40;;
38226;SDS011;24026;49.446;8.576;2023-07-08T05:24:05;147.55;;;135.95;;
38226;SDS011;24026;49.446;8.576;2023-07-08T05:26:27;146.55;;;135.07;;
38226;SDS011;24026;49.446;8.576;2023-07-08T05:28:48;145.45;;;133.75;;
38226;SDS011;24026;49.446;8.576;2023-07-08T05:31:08;146.77;;;135.27;;
38226;SDS011;24026;49.446;8.576;2023-07-08T05:33:29;146.75;;;135.10;;
38226;SDS011;24026;49.446;8.576;2023-07-08T05:35:51;146.00;;;134.52;;
38226;SDS011;24026;49.446;8.576;2023-07-08T05:38:12;147.63;;;136.02;;
38226;SDS011;24026;49.446;8.576;2023-07-08T05:40:32;147.90;;;136.25;;
38226;SDS011;24026;49.446;8.576;2023-07-08T05:42:52;149.80;;;138.07;;
38226;SDS011;24026;49.446;8.576;2023-07-08T05:45:13;149.68;;;137.70;;
38226;SDS011;24026;49.446;8.576;2023-07-08T05:47:33;149.63;;;137.82;;
38226;SDS011;24026;49.446;8.576;2023-07-08T05:49:53;148.40;;;136.73;;
38226;SDS011;24026;49.446;8.576;2023-07-08T05:52:14;148.38;;;136.63;;
38226;SDS011;24026;49.446;8.576;2023-07-08T05:54:34;150.13;;;138.40;;
38226;SDS011;24026;49.446;8.576;2023-07-08T05:56:55;150.95;;;138.95;;
38226;SDS011;24026;49.446;8.576;2023-07-08T05:59:15;149.90;;;138.07;;
38226;SDS011;24026;49.446;8.576;2023-07-08T06:01:35;149.07;;;137.30;;
38226;SDS011;24026;49.446;8.576;2023-07-08T06:03:56;150.43;;;138.48;;
38226;SDS011;24026;49.446;8.576;2023-07-08T06:06:19;150.00;;;137.95;;
38226;SDS011;24026;49.446;8.576;2023-07-08T06:08:40;150.70;;;138.90;;
38226;SDS011;24026;49.446;8.576;2023-07-08T06:11:01;150.95;;;139.05;;
38226;SDS011;24026;49.446;8.576;2023-07-08T06:13:21;151.50;;;139.60;;
38226;SDS011;24026;49.446;8.576;2023-07-08T06:15:42;148.63;;;136.95;;
38226;SDS011;24026;49.446;8.576;2023-07-08T06:18:02;147.25;;;135.50;;
38226;SDS011;24026;49.446;8.576;2023-07-08T06:20:23;149.25;;;137.50;;
38226;SDS011;24026;49.446;8.576;2023-07-08T06:22:43;149.45;;;137.80;;
38226;SDS011;24026;49.446;8.576;2023-07-08T06:25:04;151.88;;;139.98;;
38226;SDS011;24026;49.446;8.576;2023-07-08T06:27:25;150.70;;;138.93;;
38226;SDS011;24026;49.446;8.576;2023-07-08T06:29:45;150.90;;;139.02;;
38226;SDS011;24026;49.446;8.576;2023-07-08T06:32:06;147.13;;;135.48;;
38226;SDS011;24026;49.446;8.576;2023-07-08T06:34:27;150.38;;;138.38;;
38226;SDS011;24026;49.446;8.576;2023-07-08T06:36:47;150.00;;;138.25;;
38226;SDS011;24026;49.446;8.576;2023-07-08T06:39:08;148.73;;;136.93;;
38226;SDS011;24026;49.446;8.576;2023-07-08T06:41:31;151.48;;;139.50;;
38226;SDS011;24026;49.446;8.576;2023-07-08T06:43:51;150.57;;;138.88;;
38226;SDS011;24026;49.446;8.576;2023-07-08T06:46:12;150.77;;;139.07;;
38226;SDS011;24026;49.446;8.576;2023-07-08T06:48:33;148.70;;;137.00;;
38226;SDS011;24026;49.446;8.576;2023-07-08T06:50:54;152.20;;;140.43;;
38226;SDS011;24026;49.446;8.576;2023-07-08T06:53:15;150.90;;;138.90;;
38226;SDS011;24026;49.446;8.576;2023-07-08T06:55:35;151.52;;;139.43;;
38226;SDS011;24026;49.446;8.576;2023-07-08T06:57:56;151.20;;;139.40;;
38226;SDS011;24026;49.446;8.576;2023-07-08T07:00:16;151.63;;;139.88;;
38226;SDS011;24026;49.446;8.576;2023-07-08T07:02:37;147.20;;;135.73;;
38226;SDS011;24026;49.446;8.576;2023-07-08T07:04:58;152.82;;;140.95;;
38226;SDS011;24026;49.446;8.576;2023-07-08T07:07:18;150.82;;;138.98;;
38226;SDS011;24026;49.446;8.576;2023-07-08T07:09:39;151.40;;;139.70;;
38226;SDS011;24026;49.446;8.576;2023-07-08T07:11:59;150.85;;;139.02;;
38226;SDS011;24026;49.446;8.576;2023-07-08T07:14:19;148.88;;;137.18;;
38226;SDS011;24026;49.446;8.576;2023-07-08T07:16:40;150.50;;;138.82;;
38226;SDS011;24026;49.446;8.576;2023-07-08T07:19:02;149.82;;;138.13;;
38226;SDS011;24026;49.446;8.576;2023-07-08T07:21:22;149.55;;;137.90;;
38226;SDS011;24026;49.446;8.576;2023-07-08T07:23:43;149.73;;;138.13;;
38226;SDS011;24026;49.446;8.576;2023-07-08T07:26:03;148.77;;;137.18;;
38226;SDS011;24026;49.446;8.576;2023-07-08T07:28:24;149.00;;;137.32;;
38226;SDS011;24026;49.446;8.576;2023-07-08T07:30:45;149.63;;;137.95;;
38226;SDS011;24026;49.446;8.576;2023-07-08T07:33:06;151.93;;;140.05;;
38226;SDS011;24026;49.446;8.576;2023-07-08T07:35:26;151.68;;;139.77;;
38226;SDS011;24026;49.446;8.576;2023-07-08T07:37:46;150.77;;;139.15;;
38226;SDS011;24026;49.446;8.576;2023-07-08T07:40:08;150.93;;;139.23;;
38226;SDS011;24026;49.446;8.576;2023-07-08T07:42:32;151.20;;;139.50;;
38226;SDS011;24026;49.446;8.576;2023-07-08T07:44:53;148.70;;;137.18;;
38226;SDS011;24026;49.446;8.576;2023-07-08T07:47:13;149.68;;;138.07;;
38226;SDS011;24026;49.446;8.576;2023-07-08T07:49:34;152.73;;;140.85;;
38226;SDS011;24026;49.446;8.576;2023-07-08T07:51:55;148.95;;;137.32;;
38226;SDS011;24026;49.446;8.576;2023-07-08T07:54:15;151.05;;;139.30;;
38226;SDS011;24026;49.446;8.576;2023-07-08T07:56:36;151.02;;;139.27;;
38226;SDS011;24026;49.446;8.576;2023-07-08T07:58:56;150.80;;;139.15;;
38226;SDS011;24026;49.446;8.576;2023-07-08T08:01:17;151.07;;;139.35;;
38226;SDS011;24026;49.446;8.576;2023-07-08T08:03:39;151.07;;;139.32;;
38226;SDS011;24026;49.446;8.576;2023-07-08T08:06:02;153.35;;;141.57;;
38226;SDS011;24026;49.446;8.576;2023-07-08T08:08:23;152.55;;;140.75;;
38226;SDS011;24026;49.446;8.576;2023-07-08T08:10:44;152.27;;;140.50;;
38226;SDS011;24026;49.446;8.576;2023-07-08T08:13:04;149.98;;;138.27;;
38226;SDS011;24026;49.446;8.576;2023-07-08T08:15:25;151.00;;;139.30;;
38226;SDS011;24026;49.446;8.576;2023-07-08T08:17:45;154.38;;;142.45;;
38226;SDS011;24026;49.446;8.576;2023-07-08T08:20:09;152.27;;;140.53;;
38226;SDS011;24026;49.446;8.576;2023-07-08T08:22:29;153.10;;;141.30;;
38226;SDS011;24026;49.446;8.576;2023-07-08T08:24:50;153.75;;;141.85;;
38226;SDS011;24026;49.446;8.576;2023-07-08T08:27:10;151.95;;;140.25;;
38226;SDS011;24026;49.446;8.576;2023-07-08T08:29:31;151.63;;;139.93;;
38226;SDS011;24026;49.446;8.576;2023-07-08T08:31:51;153.23;;;141.38;;
38226;SDS011;24026;49.446;8.576;2023-07-08T08:34:11;153.32;;;141.45;;
38226;SDS011;24026;49.446;8.576;2023-07-08T08:36:32;152.70;;;140.90;;
38226;SDS011;24026;49.446;8.576;2023-07-08T08:38:52;153.15;;;141.20;;
38226;SDS011;24026;49.446;8.576;2023-07-08T08:41:13;151.80;;;140.00;;
38226;SDS011;24026;49.446;8.576;2023-07-08T08:43:36;153.23;;;141.23;;
38226;SDS011;24026;49.446;8.576;2023-07-08T08:46:15;152.18;;;140.48;;
38226;SDS011;24026;49.446;8.576;2023-07-08T08:48:51;152.80;;;141.10;;
38226;SDS011;24026;49.446;8.576;2023-07-08T08:51:19;151.75;;;139.90;;
38226;SDS011;24026;49.446;8.576;2023-07-08T08:53:40;152.02;;;140.23;;
38226;SDS011;24026;49.446;8.576;2023-07-08T08:56:03;155.52;;;143.43;;
38226;SDS011;24026;49.446;8.576;2023-07-08T09:01:25;153.55;;;141.73;;
38226;SDS011;24026;49.446;8.576;2023-07-08T09:03:55;150.68;;;139.05;;
38226;SDS011;24026;49.446;8.576;2023-07-08T09:06:24;151.77;;;140.20;;
38226;SDS011;24026;49.446;8.576;2023-07-08T09:08:46;153.13;;;141.30;;
38226;SDS011;24026;49.446;8.576;2023-07-08T09:14:24;152.23;;;140.65;;
38226;SDS011;24026;49.446;8.576;2023-07-08T09:19:35;153.23;;;141.48;;
38226;SDS011;24026;49.446;8.576;2023-07-08T09:22:11;152.10;;;140.27;;
38226;SDS011;24026;49.446;8.576;2023-07-08T09:27:08;150.48;;;138.90;;
38226;SDS011;24026;49.446;8.576;2023-07-08T09:29:29;151.43;;;139.75;;
38226;SDS011;24026;49.446;8.576;2023-07-08T09:31:52;151.05;;;139.43;;
38226;SDS011;24026;49.446;8.576;2023-07-08T09:34:16;153.18;;;141.48;;
38226;SDS011;24026;49.446;8.576;2023-07-08T09:36:43;152.52;;;140.90;;
38226;SDS011;24026;49.446;8.576;2023-07-08T09:39:08;151.60;;;139.93;;
38226;SDS011;24026;49.446;8.576;2023-07-08T09:41:34;152.95;;;141.30;;
38226;SDS011;24026;49.446;8.576;2023-07-08T09:44:16;154.13;;;142.38;;
38226;SDS011;24026;49.446;8.576;2023-07-08T09:46:48;153.15;;;141.38;;
38226;SDS011;24026;49.446;8.576;2023-07-08T09:49:19;153.43;;;141.73;;
38226;SDS011;24026;49.446;8.576;2023-07-08T09:51:47;151.30;;;139.77;;
38226;SDS011;24026;49.446;8.576;2023-07-08T09:54:10;154.13;;;142.30;;
38226;SDS011;24026;49.446;8.576;2023-07-08T09:56:30;153.00;;;141.35;;
38226;SDS011;24026;49.446;8.576;2023-07-08T09:58:51;154.13;;;142.30;;
38226;SDS011;24026;49.446;8.576;2023-07-08T10:01:12;154.20;;;142.48;;
38226;SDS011;24026;49.446;8.576;2023-07-08T10:03:46;151.85;;;140.25;;
38226;SDS011;24026;49.446;8.576;2023-07-08T10:06:17;154.77;;;142.98;;
38226;SDS011;24026;49.446;8.576;2023-07-08T10:08:41;151.20;;;139.50;;
38226;SDS011;24026;49.446;8.576;2023-07-08T10:13:48;150.43;;;138.88;;
38226;SDS011;24026;49.446;8.576;2023-07-08T10:16:17;153.57;;;141.77;;
38226;SDS011;24026;49.446;8.576;2023-07-08T10:18:44;153.38;;;141.57;;
38226;SDS011;24026;49.446;8.576;2023-07-08T10:36:08;155.32;;;143.55;;
38226;SDS011;24026;49.446;8.576;2023-07-08T10:55:24;153.23;;;141.55;;
38226;SDS011;24026;49.446;8.576;2023-07-08T11:00:24;153.90;;;142.07;;
38226;SDS011;24026;49.446;8.576;2023-07-08T11:05:44;153.23;;;141.60;;
38226;SDS011;24026;49.446;8.576;2023-07-08T11:08:15;153.30;;;141.60;;
38226;SDS011;24026;49.446;8.576;2023-07-08T11:10:49;153.90;;;142.20;;
38226;SDS011;24026;49.446;8.576;2023-07-08T11:13:19;153.55;;;142.05;;
38226;SDS011;24026;49.446;8.576;2023-07-08T11:15:45;152.25;;;140.70;;
38226;SDS011;24026;49.446;8.576;2023-07-08T11:18:15;151.43;;;140.02;;
38226;SDS011;24026;49.446;8.576;2023-07-08T11:20:50;153.18;;;141.65;;
38226;SDS011;24026;49.446;8.576;2023-07-08T11:23:28;153.52;;;141.77;;
38226;SDS011;24026;49.446;8.576;2023-07-08T11:26:07;154.10;;;142.35;;
38226;SDS011;24026;49.446;8.576;2023-07-08T11:28:49;154.88;;;143.23;;
38226;SDS011;24026;49.446;8.576;2023-07-08T11:31:11;154.07;;;142.45;;
38226;SDS011;24026;49.446;8.576;2023-07-08T11:33:34;155.48;;;143.82;;
38226;SDS011;24026;49.446;8.576;2023-07-08T11:35:55;152.60;;;141.05;;
38226;SDS011;24026;49.446;8.576;2023-07-08T11:38:19;153.63;;;142.18;;
38226;SDS011;24026;49.446;8.576;2023-07-08T11:40:51;153.95;;;142.25;;
38226;SDS011;24026;49.446;8.576;2023-07-08T11:43:14;154.88;;;143.27;;
38226;SDS011;24026;49.446;8.576;2023-07-08T11:45:38;155.70;;;144.00;;
38226;SDS011;24026;49.446;8.576;2023-07-08T11:48:06;154.40;;;142.90;;
38226;SDS011;24026;49.446;8.576;2023-07-08T11:50:37;154.43;;;142.90;;
38226;SDS011;24026;49.446;8.576;2023-07-08T11:53:07;154.55;;;142.95;;
38226;SDS011;24026;49.446;8.576;2023-07-08T11:57:59;155.60;;;143.93;;
38226;SDS011;24026;49.446;8.576;2023-07-08T12:00:22;155.70;;;144.00;;
38226;SDS011;24026;49.446;8.576;2023-07-08T12:05:12;156.10;;;144.20;;
38226;SDS011;24026;49.446;8.576;2023-07-08T12:07:37;155.05;;;143.45;;
38226;SDS011;24026;49.446;8.576;2023-07-08T12:10:05;155.88;;;144.20;;
38226;SDS011;24026;49.446;8.576;2023-07-08T12:12:31;154.63;;;143.15;;
38226;SDS011;24026;49.446;8.576;2023-07-08T12:15:04;155.88;;;144.18;;
38226;SDS011;24026;49.446;8.576;2023-07-08T12:20:15;154.90;;;143.35;;
38226;SDS011;24026;49.446;8.576;2023-07-08T12:22:47;154.88;;;143.35;;
38226;SDS011;24026;49.446;8.576;2023-07-08T12:25:15;155.25;;;143.65;;
38226;SDS011;24026;49.446;8.576;2023-07-08T12:27:37;155.23;;;143.43;;
38226;SDS011;24026;49.446;8.576;2023-07-08T12:29:57;155.07;;;143.55;;
38226;SDS011;24026;49.446;8.576;2023-07-08T12:32:17;155.70;;;144.07;;
38226;SDS011;24026;49.446;8.576;2023-07-08T12:34:39;157.77;;;146.07;;
38226;SDS011;24026;49.446;8.576;2023-07-08T12:37:00;155.25;;;143.65;;
38226;SDS011;24026;49.446;8.576;2023-07-08T12:39:21;152.77;;;141.45;;
38226;SDS011;24026;49.446;8.576;2023-07-08T12:41:42;155.38;;;143.70;;
38226;SDS011;24026;49.446;8.576;2023-07-08T12:44:04;157.02;;;145.32;;
38226;SDS011;24026;49.446;8.576;2023-07-08T12:46:34;152.77;;;141.30;;
38226;SDS011;24026;49.446;8.576;2023-07-08T12:48:54;156.60;;;144.95;;
38226;SDS011;24026;49.446;8.576;2023-07-08T12:51:19;155.68;;;143.93;;
38226;SDS011;24026;49.446;8.576;2023-07-08T12:53:41;156.23;;;144.70;;
38226;SDS011;24026;49.446;8.576;2023-07-08T12:56:03;155.60;;;144.02;;
38226;SDS011;24026;49.446;8.576;2023-07-08T13:00:48;156.32;;;144.52;;
38226;SDS011;24026;49.446;8.576;2023-07-08T13:03:16;159.05;;;147.10;;
38226;SDS011;24026;49.446;8.576;2023-07-08T13:05:43;156.93;;;145.10;;
38226;SDS011;24026;49.446;8.576;2023-07-08T13:08:04;155.95;;;144.38;;
38226;SDS011;24026;49.446;8.576;2023-07-08T13:10:25;154.27;;;142.77;;
38226;SDS011;24026;49.446;8.576;2023-07-08T13:12:51;156.85;;;145.05;;
38226;SDS011;24026;49.446;8.576;2023-07-08T13:15:20;159.15;;;147.38;;
38226;SDS011;24026;49.446;8.576;2023-07-08T13:17:43;157.18;;;145.40;;
38226;SDS011;24026;49.446;8.576;2023-07-08T13:20:04;155.57;;;144.07;;
38226;SDS011;24026;49.446;8.576;2023-07-08T13:22:26;153.85;;;142.35;;
38226;SDS011;24026;49.446;8.576;2023-07-08T13:24:46;157.88;;;146.18;;
38226;SDS011;24026;49.446;8.576;2023-07-08T13:27:08;157.30;;;145.70;;
38226;SDS011;24026;49.446;8.576;2023-07-08T13:29:44;155.40;;;143.90;;
38226;SDS011;24026;49.446;8.576;2023-07-08T13:32:05;156.70;;;145.07;;
38226;SDS011;24026;49.446;8.576;2023-07-08T13:34:26;155.95;;;144.43;;
38226;SDS011;24026;49.446;8.576;2023-07-08T13:36:49;156.88;;;145.25;;
38226;SDS011;24026;49.446;8.576;2023-07-08T13:39:29;155.02;;;143.52;;
38226;SDS011;24026;49.446;8.576;2023-07-08T13:41:53;156.68;;;145.07;;
38226;SDS011;24026;49.446;8.576;2023-07-08T13:44:15;155.07;;;143.57;;
38226;SDS011;24026;49.446;8.576;2023-07-08T13:46:37;155.77;;;144.13;;
38226;SDS011;24026;49.446;8.576;2023-07-08T13:49:07;155.13;;;143.55;;
38226;SDS011;24026;49.446;8.576;2023-07-08T13:51:49;157.82;;;146.10;;
38226;SDS011;24026;49.446;8.576;2023-07-08T13:54:34;155.48;;;143.95;;
38226;SDS011;24026;49.446;8.576;2023-07-08T13:56:54;158.30;;;146.57;;
38226;SDS011;24026;49.446;8.576;2023-07-08T13:59:18;157.23;;;145.68;;
38226;SDS011;24026;49.446;8.576;2023-07-08T14:01:43;155.02;;;143.52;;
38226;SDS011;24026;49.446;8.576;2023-07-08T14:04:04;156.35;;;144.85;;
38226;SDS011;24026;49.446;8.576;2023-07-08T14:06:28;155.55;;;144.05;;
38226;SDS011;24026;49.446;8.576;2023-07-08T14:08:54;157.63;;;145.88;;
38226;SDS011;24026;49.446;8.576;2023-07-08T14:11:16;156.55;;;144.90;;
38226;SDS011;24026;49.446;8.576;2023-07-08T14:13:37;155.50;;;144.02;;
38226;SDS011;24026;49.446;8.576;2023-07-08T14:15:57;157.77;;;146.07;;
38226;SDS011;24026;49.446;8.576;2023-07-08T14:18:17;153.27;;;141.85;;
38226;SDS011;24026;49.446;8.576;2023-07-08T14:20:38;159.02;;;147.35;;
38226;SDS011;24026;49.446;8.576;2023-07-08T14:22:59;155.75;;;144.25;;
38226;SDS011;24026;49.446;8.576;2023-07-08T14:25:19;159.15;;;147.45;;
38226;SDS011;24026;49.446;8.576;2023-07-08T14:27:43;156.50;;;144.90;;
38226;SDS011;24026;49.446;8.576;2023-07-08T14:30:04;155.23;;;143.63;;
38226;SDS011;24026;49.446;8.576;2023-07-08T14:32:28;156.40;;;144.82;;
38226;SDS011;24026;49.446;8.576;2023-07-08T14:37:46;154.30;;;142.88;;
38226;SDS011;24026;49.446;8.576;2023-07-08T14:40:19;157.18;;;145.45;;
38226;SDS011;24026;49.446;8.576;2023-07-08T14:42:47;156.27;;;144.50;;